sensor_id;sensor_type;location;lat;lon;timestamp;P1;durP1;ratioP1;P2;durP2;ratioP2
25437;SDS011;13364;49.084;9.978;2023-05-10T00:00:36;3.22;;;2.10;;
25437;SDS011;13364;49.084;9.978;2023-05-10T00:03:03;5.03;;;2.10;;
25437;SDS011;13364;49.084;9.978;2023-05-10T00:05:31;4.13;;;2.40;;
25437;SDS011;13364;49.084;9.978;2023-05-10T00:07:58;3.35;;;2.30;;
25437;SDS011;13364;49.084;9.978;2023-05-10T00:10:25;3.17;;;2.38;;
25437;SDS011;13364;49.084;9.978;2023-05-10T00:12:52;2.97;;;2.70;;
25437;SDS011;13364;49.084;9.978;2023-05-10T00:15:19;3.05;;;2.50;;
25437;SDS011;13364;49.084;9.978;2023-05-10T00:17:46;2.63;;;2.15;;
25437;SDS011;13364;49.084;9.978;2023-05-10T00:20:14;3.38;;;1.67;;
25437;SDS011;13364;49.084;9.978;2023-05-10T00:22:41;2.03;;;1.80;;
25437;SDS011;13364;49.084;9.978;2023-05-10T00:25:08;3.28;;;1.90;;
25437;SDS011;13364;49.084;9.978;2023-05-10T00:27:36;4.35;;;1.23;;
25437;SDS011;13364;49.084;9.978;2023-05-10T00:30:04;1.13;;;1.02;;
25437;SDS011;13364;49.084;9.978;2023-05-10T00:32:31;1.00;;;0.90;;
25437;SDS011;13364;49.084;9.978;2023-05-10T00:34:58;1.92;;;1.10;;
25437;SDS011;13364;49.084;9.978;2023-05-10T00:37:25;2.85;;;1.30;;
25437;SDS011;13364;49.084;9.978;2023-05-10T00:39:53;1.42;;;1.10;;
25437;SDS011;13364;49.084;9.978;2023-05-10T00:42:20;3.13;;;1.00;;
25437;SDS011;13364;49.084;9.978;2023-05-10T00:44:50;0.82;;;0.80;;
25437;SDS011;13364;49.084;9.978;2023-05-10T00:47:17;2.78;;;0.80;;
25437;SDS011;13364;49.084;9.978;2023-05-10T00:49:44;3.75;;;0.95;;
25437;SDS011;13364;49.084;9.978;2023-05-10T00:52:12;0.73;;;0.73;;
25437;SDS011;13364;49.084;9.978;2023-05-10T00:54:40;3.20;;;1.00;;
25437;SDS011;13364;49.084;9.978;2023-05-10T00:57:07;1.98;;;0.80;;
25437;SDS011;13364;49.084;9.978;2023-05-10T00:59:35;0.90;;;0.77;;
25437;SDS011;13364;49.084;9.978;2023-05-10T01:02:02;0.75;;;0.75;;
25437;SDS011;13364;49.084;9.978;2023-05-10T01:04:29;1.83;;;0.82;;
25437;SDS011;13364;49.084;9.978;2023-05-10T01:06:56;0.45;;;0.43;;
25437;SDS011;13364;49.084;9.978;2023-05-10T01:09:24;3.05;;;0.60;;
25437;SDS011;13364;49.084;9.978;2023-05-10T01:11:52;3.25;;;0.70;;
25437;SDS011;13364;49.084;9.978;2023-05-10T01:14:21;0.60;;;0.60;;
25437;SDS011;13364;49.084;9.978;2023-05-10T01:16:48;1.92;;;0.82;;
25437;SDS011;13364;49.084;9.978;2023-05-10T01:19:21;3.83;;;0.75;;
25437;SDS011;13364;49.084;9.978;2023-05-10T01:22:02;1.00;;;0.73;;
25437;SDS011;13364;49.084;9.978;2023-05-10T01:37:31;0.68;;;0.47;;
25437;SDS011;13364;49.084;9.978;2023-05-10T01:42:59;0.70;;;0.68;;
25437;SDS011;13364;49.084;9.978;2023-05-10T01:45:45;1.33;;;0.80;;
25437;SDS011;13364;49.084;9.978;2023-05-10T01:48:22;0.65;;;0.65;;
25437;SDS011;13364;49.084;9.978;2023-05-10T01:50:51;0.45;;;0.45;;
25437;SDS011;13364;49.084;9.978;2023-05-10T01:53:19;2.88;;;0.70;;
25437;SDS011;13364;49.084;9.978;2023-05-10T01:55:48;0.57;;;0.57;;
25437;SDS011;13364;49.084;9.978;2023-05-10T01:58:20;1.27;;;0.50;;
25437;SDS011;13364;49.084;9.978;2023-05-10T02:00:50;3.63;;;0.70;;
25437;SDS011;13364;49.084;9.978;2023-05-10T02:03:20;1.45;;;0.57;;
25437;SDS011;13364;49.084;9.978;2023-05-10T02:05:50;1.75;;;0.65;;
25437;SDS011;13364;49.084;9.978;2023-05-10T02:08:20;0.82;;;0.80;;
25437;SDS011;13364;49.084;9.978;2023-05-10T02:10:49;1.13;;;0.68;;
25437;SDS011;13364;49.084;9.978;2023-05-10T02:13:18;0.70;;;0.70;;
25437;SDS011;13364;49.084;9.978;2023-05-10T02:15:46;0.70;;;0.70;;
25437;SDS011;13364;49.084;9.978;2023-05-10T02:18:15;0.70;;;0.70;;
25437;SDS011;13364;49.084;9.978;2023-05-10T02:20:44;0.60;;;0.60;;
25437;SDS011;13364;49.084;9.978;2023-05-10T02:23:14;1.40;;;0.88;;
25437;SDS011;13364;49.084;9.978;2023-05-10T02:25:43;1.10;;;0.90;;
25437;SDS011;13364;49.084;9.978;2023-05-10T02:28:12;0.90;;;0.90;;
25437;SDS011;13364;49.084;9.978;2023-05-10T02:30:41;1.40;;;1.15;;
25437;SDS011;13364;49.084;9.978;2023-05-10T02:33:09;2.13;;;0.98;;
25437;SDS011;13364;49.084;9.978;2023-05-10T02:35:38;0.90;;;0.90;;
25437;SDS011;13364;49.084;9.978;2023-05-10T02:38:07;1.30;;;1.20;;
25437;SDS011;13364;49.084;9.978;2023-05-10T02:40:38;1.15;;;0.98;;
25437;SDS011;13364;49.084;9.978;2023-05-10T02:43:07;1.30;;;1.20;;
25437;SDS011;13364;49.084;9.978;2023-05-10T02:45:38;7.63;;;1.33;;
25437;SDS011;13364;49.084;9.978;2023-05-10T02:48:08;0.90;;;0.90;;
25437;SDS011;13364;49.084;9.978;2023-05-10T02:50:35;1.60;;;1.00;;
25437;SDS011;13364;49.084;9.978;2023-05-10T02:53:11;1.00;;;1.00;;
25437;SDS011;13364;49.084;9.978;2023-05-10T02:55:45;1.83;;;1.50;;
25437;SDS011;13364;49.084;9.978;2023-05-10T02:58:17;1.45;;;1.35;;
25437;SDS011;13364;49.084;9.978;2023-05-10T03:00:45;3.95;;;1.10;;
25437;SDS011;13364;49.084;9.978;2023-05-10T03:03:12;1.27;;;1.20;;
25437;SDS011;13364;49.084;9.978;2023-05-10T03:05:39;1.80;;;1.50;;
25437;SDS011;13364;49.084;9.978;2023-05-10T03:08:07;2.60;;;1.48;;
25437;SDS011;13364;49.084;9.978;2023-05-10T03:10:37;1.60;;;1.50;;
25437;SDS011;13364;49.084;9.978;2023-05-10T03:16:08;1.75;;;1.65;;
25437;SDS011;13364;49.084;9.978;2023-05-10T03:18:44;2.10;;;1.60;;
25437;SDS011;13364;49.084;9.978;2023-05-10T03:21:19;4.18;;;1.50;;
25437;SDS011;13364;49.084;9.978;2023-05-10T03:23:59;1.80;;;1.70;;
25437;SDS011;13364;49.084;9.978;2023-05-10T03:26:35;2.20;;;2.00;;
25437;SDS011;13364;49.084;9.978;2023-05-10T03:29:12;2.08;;;1.88;;
25437;SDS011;13364;49.084;9.978;2023-05-10T03:31:41;2.00;;;1.90;;
25437;SDS011;13364;49.084;9.978;2023-05-10T03:34:09;2.75;;;1.88;;
25437;SDS011;13364;49.084;9.978;2023-05-10T03:36:36;2.40;;;2.20;;
25437;SDS011;13364;49.084;9.978;2023-05-10T03:39:03;3.05;;;2.13;;
25437;SDS011;13364;49.084;9.978;2023-05-10T03:41:30;2.15;;;2.03;;
25437;SDS011;13364;49.084;9.978;2023-05-10T03:43:57;2.15;;;1.95;;
25437;SDS011;13364;49.084;9.978;2023-05-10T03:46:24;2.38;;;2.08;;
25437;SDS011;13364;49.084;9.978;2023-05-10T03:48:51;1.95;;;1.85;;
25437;SDS011;13364;49.084;9.978;2023-05-10T03:51:18;7.43;;;2.38;;
25437;SDS011;13364;49.084;9.978;2023-05-10T03:57:51;2.78;;;2.03;;
25437;SDS011;13364;49.084;9.978;2023-05-10T04:00:21;2.30;;;2.10;;
25437;SDS011;13364;49.084;9.978;2023-05-10T04:02:51;2.63;;;2.30;;
25437;SDS011;13364;49.084;9.978;2023-05-10T04:05:19;2.15;;;2.05;;
25437;SDS011;13364;49.084;9.978;2023-05-10T04:07:46;4.10;;;2.05;;
25437;SDS011;13364;49.084;9.978;2023-05-10T04:10:15;2.92;;;2.38;;
25437;SDS011;13364;49.084;9.978;2023-05-10T04:12:43;2.72;;;2.50;;
25437;SDS011;13364;49.084;9.978;2023-05-10T04:15:10;3.90;;;2.30;;
25437;SDS011;13364;49.084;9.978;2023-05-10T04:17:37;2.72;;;2.45;;
25437;SDS011;13364;49.084;9.978;2023-05-10T04:20:04;2.83;;;2.53;;
25437;SDS011;13364;49.084;9.978;2023-05-10T04:22:32;2.22;;;2.03;;
25437;SDS011;13364;49.084;9.978;2023-05-10T04:24:59;2.35;;;2.10;;
25437;SDS011;13364;49.084;9.978;2023-05-10T04:27:26;3.88;;;2.65;;
25437;SDS011;13364;49.084;9.978;2023-05-10T04:29:53;4.68;;;2.05;;
25437;SDS011;13364;49.084;9.978;2023-05-10T04:32:20;2.30;;;2.10;;
25437;SDS011;13364;49.084;9.978;2023-05-10T04:34:47;4.68;;;2.22;;
25437;SDS011;13364;49.084;9.978;2023-05-10T04:37:14;2.83;;;2.58;;
25437;SDS011;13364;49.084;9.978;2023-05-10T04:39:41;2.53;;;2.33;;
25437;SDS011;13364;49.084;9.978;2023-05-10T04:42:09;3.35;;;2.40;;
25437;SDS011;13364;49.084;9.978;2023-05-10T04:44:36;4.55;;;2.72;;
25437;SDS011;13364;49.084;9.978;2023-05-10T04:47:03;6.03;;;2.53;;
25437;SDS011;13364;49.084;9.978;2023-05-10T04:49:30;3.33;;;2.60;;
25437;SDS011;13364;49.084;9.978;2023-05-10T04:51:57;4.18;;;3.03;;
25437;SDS011;13364;49.084;9.978;2023-05-10T04:54:24;3.10;;;2.75;;
25437;SDS011;13364;49.084;9.978;2023-05-10T04:56:51;3.17;;;2.80;;
25437;SDS011;13364;49.084;9.978;2023-05-10T04:59:18;3.15;;;2.85;;
25437;SDS011;13364;49.084;9.978;2023-05-10T05:01:45;3.30;;;3.00;;
25437;SDS011;13364;49.084;9.978;2023-05-10T05:04:12;5.68;;;3.00;;
25437;SDS011;13364;49.084;9.978;2023-05-10T05:06:40;3.75;;;2.78;;
25437;SDS011;13364;49.084;9.978;2023-05-10T05:09:07;4.05;;;3.00;;
25437;SDS011;13364;49.084;9.978;2023-05-10T05:11:36;4.22;;;3.60;;
25437;SDS011;13364;49.084;9.978;2023-05-10T05:14:03;3.40;;;2.75;;
25437;SDS011;13364;49.084;9.978;2023-05-10T05:16:30;3.20;;;2.90;;
25437;SDS011;13364;49.084;9.978;2023-05-10T05:19:06;3.88;;;3.13;;
25437;SDS011;13364;49.084;9.978;2023-05-10T05:21:33;4.15;;;3.22;;
25437;SDS011;13364;49.084;9.978;2023-05-10T05:24:00;5.70;;;3.30;;
25437;SDS011;13364;49.084;9.978;2023-05-10T05:26:27;3.67;;;3.20;;
25437;SDS011;13364;49.084;9.978;2023-05-10T05:28:54;6.93;;;3.15;;
25437;SDS011;13364;49.084;9.978;2023-05-10T05:31:21;3.92;;;3.03;;
25437;SDS011;13364;49.084;9.978;2023-05-10T05:33:48;4.43;;;3.10;;
25437;SDS011;13364;49.084;9.978;2023-05-10T05:36:16;3.88;;;2.83;;
25437;SDS011;13364;49.084;9.978;2023-05-10T05:38:43;5.10;;;3.10;;
25437;SDS011;13364;49.084;9.978;2023-05-10T05:41:10;6.15;;;3.03;;
25437;SDS011;13364;49.084;9.978;2023-05-10T05:43:37;3.83;;;2.30;;
25437;SDS011;13364;49.084;9.978;2023-05-10T05:46:04;3.10;;;2.60;;
25437;SDS011;13364;49.084;9.978;2023-05-10T05:48:31;2.80;;;2.42;;
25437;SDS011;13364;49.084;9.978;2023-05-10T05:50:58;5.22;;;2.60;;
25437;SDS011;13364;49.084;9.978;2023-05-10T05:53:25;2.38;;;2.17;;
25437;SDS011;13364;49.084;9.978;2023-05-10T05:55:56;3.10;;;2.80;;
25437;SDS011;13364;49.084;9.978;2023-05-10T05:58:24;3.58;;;2.78;;
25437;SDS011;13364;49.084;9.978;2023-05-10T06:00:52;4.75;;;2.90;;
25437;SDS011;13364;49.084;9.978;2023-05-10T06:03:19;3.80;;;3.40;;
25437;SDS011;13364;49.084;9.978;2023-05-10T06:05:47;3.47;;;2.92;;
25437;SDS011;13364;49.084;9.978;2023-05-10T06:08:14;3.80;;;2.90;;
25437;SDS011;13364;49.084;9.978;2023-05-10T06:10:41;4.15;;;3.20;;
25437;SDS011;13364;49.084;9.978;2023-05-10T06:13:08;3.60;;;3.03;;
25437;SDS011;13364;49.084;9.978;2023-05-10T06:15:36;7.03;;;3.55;;
25437;SDS011;13364;49.084;9.978;2023-05-10T06:18:03;3.63;;;2.92;;
25437;SDS011;13364;49.084;9.978;2023-05-10T06:20:30;2.78;;;2.58;;
25437;SDS011;13364;49.084;9.978;2023-05-10T06:22:58;4.35;;;3.60;;
25437;SDS011;13364;49.084;9.978;2023-05-10T06:25:25;5.18;;;3.70;;
25437;SDS011;13364;49.084;9.978;2023-05-10T06:27:52;3.40;;;3.10;;
25437;SDS011;13364;49.084;9.978;2023-05-10T06:30:24;3.53;;;2.78;;
25437;SDS011;13364;49.084;9.978;2023-05-10T06:32:55;3.95;;;3.10;;
25437;SDS011;13364;49.084;9.978;2023-05-10T06:35:22;3.30;;;3.00;;
25437;SDS011;13364;49.084;9.978;2023-05-10T06:37:49;4.70;;;3.20;;
25437;SDS011;13364;49.084;9.978;2023-05-10T06:40:17;3.13;;;2.83;;
25437;SDS011;13364;49.084;9.978;2023-05-10T06:42:45;3.08;;;2.80;;
25437;SDS011;13364;49.084;9.978;2023-05-10T06:45:13;5.18;;;3.60;;
25437;SDS011;13364;49.084;9.978;2023-05-10T06:47:41;3.60;;;3.30;;
25437;SDS011;13364;49.084;9.978;2023-05-10T06:50:09;4.35;;;3.20;;
25437;SDS011;13364;49.084;9.978;2023-05-10T06:52:37;5.50;;;3.42;;
25437;SDS011;13364;49.084;9.978;2023-05-10T06:55:05;5.57;;;3.72;;
25437;SDS011;13364;49.084;9.978;2023-05-10T06:57:33;6.10;;;3.78;;
25437;SDS011;13364;49.084;9.978;2023-05-10T07:00:00;5.78;;;3.25;;
25437;SDS011;13364;49.084;9.978;2023-05-10T07:02:27;5.15;;;3.63;;
25437;SDS011;13364;49.084;9.978;2023-05-10T07:04:54;4.75;;;3.33;;
25437;SDS011;13364;49.084;9.978;2023-05-10T07:07:22;3.72;;;3.35;;
25437;SDS011;13364;49.084;9.978;2023-05-10T07:09:49;4.18;;;3.60;;
25437;SDS011;13364;49.084;9.978;2023-05-10T07:12:16;4.15;;;3.58;;
25437;SDS011;13364;49.084;9.978;2023-05-10T07:14:43;5.43;;;3.00;;
25437;SDS011;13364;49.084;9.978;2023-05-10T07:17:10;3.30;;;2.90;;
25437;SDS011;13364;49.084;9.978;2023-05-10T07:19:38;3.50;;;3.20;;
25437;SDS011;13364;49.084;9.978;2023-05-10T07:22:05;6.25;;;3.67;;
25437;SDS011;13364;49.084;9.978;2023-05-10T07:24:32;4.40;;;3.25;;
25437;SDS011;13364;49.084;9.978;2023-05-10T07:27:00;7.70;;;3.58;;
25437;SDS011;13364;49.084;9.978;2023-05-10T07:29:27;7.57;;;3.58;;
25437;SDS011;13364;49.084;9.978;2023-05-10T07:31:55;4.72;;;3.13;;
25437;SDS011;13364;49.084;9.978;2023-05-10T07:34:24;7.13;;;3.40;;
25437;SDS011;13364;49.084;9.978;2023-05-10T07:36:52;3.25;;;2.95;;
25437;SDS011;13364;49.084;9.978;2023-05-10T07:39:19;4.18;;;2.72;;
25437;SDS011;13364;49.084;9.978;2023-05-10T07:41:53;8.60;;;3.20;;
25437;SDS011;13364;49.084;9.978;2023-05-10T07:44:21;4.53;;;3.08;;
25437;SDS011;13364;49.084;9.978;2023-05-10T07:46:48;3.92;;;3.00;;
25437;SDS011;13364;49.084;9.978;2023-05-10T07:49:16;3.30;;;2.90;;
25437;SDS011;13364;49.084;9.978;2023-05-10T07:51:43;4.93;;;2.25;;
25437;SDS011;13364;49.084;9.978;2023-05-10T07:54:10;2.55;;;2.13;;
25437;SDS011;13364;49.084;9.978;2023-05-10T07:56:37;3.70;;;2.47;;
25437;SDS011;13364;49.084;9.978;2023-05-10T07:59:06;4.30;;;2.40;;
25437;SDS011;13364;49.084;9.978;2023-05-10T08:01:35;2.25;;;2.05;;
25437;SDS011;13364;49.084;9.978;2023-05-10T08:04:02;3.67;;;1.92;;
25437;SDS011;13364;49.084;9.978;2023-05-10T08:06:30;3.28;;;2.10;;
25437;SDS011;13364;49.084;9.978;2023-05-10T08:08:57;5.50;;;1.90;;
25437;SDS011;13364;49.084;9.978;2023-05-10T08:11:24;3.20;;;1.90;;
25437;SDS011;13364;49.084;9.978;2023-05-10T08:13:51;1.98;;;1.80;;
25437;SDS011;13364;49.084;9.978;2023-05-10T08:16:19;3.47;;;2.03;;
25437;SDS011;13364;49.084;9.978;2023-05-10T08:18:47;3.13;;;1.58;;
25437;SDS011;13364;49.084;9.978;2023-05-10T08:21:15;3.28;;;1.75;;
25437;SDS011;13364;49.084;9.978;2023-05-10T08:23:42;2.75;;;1.45;;
25437;SDS011;13364;49.084;9.978;2023-05-10T08:26:10;1.75;;;1.65;;
25437;SDS011;13364;49.084;9.978;2023-05-10T08:28:37;1.77;;;1.48;;
25437;SDS011;13364;49.084;9.978;2023-05-10T08:31:05;5.13;;;1.50;;
25437;SDS011;13364;49.084;9.978;2023-05-10T08:33:32;1.40;;;1.30;;
25437;SDS011;13364;49.084;9.978;2023-05-10T08:35:59;3.67;;;1.60;;
25437;SDS011;13364;49.084;9.978;2023-05-10T08:38:26;1.35;;;1.25;;
25437;SDS011;13364;49.084;9.978;2023-05-10T08:40:54;3.55;;;1.20;;
25437;SDS011;13364;49.084;9.978;2023-05-10T08:43:28;2.00;;;1.58;;
25437;SDS011;13364;49.084;9.978;2023-05-10T08:45:57;3.15;;;1.67;;
25437;SDS011;13364;49.084;9.978;2023-05-10T08:48:29;1.30;;;1.00;;
25437;SDS011;13364;49.084;9.978;2023-05-10T08:50:58;2.78;;;1.52;;
25437;SDS011;13364;49.084;9.978;2023-05-10T08:53:26;2.10;;;1.13;;
25437;SDS011;13364;49.084;9.978;2023-05-10T08:55:55;3.38;;;1.70;;
25437;SDS011;13364;49.084;9.978;2023-05-10T08:58:22;4.30;;;1.60;;
25437;SDS011;13364;49.084;9.978;2023-05-10T09:00:49;1.52;;;1.15;;
25437;SDS011;13364;49.084;9.978;2023-05-10T09:03:20;0.90;;;0.85;;
25437;SDS011;13364;49.084;9.978;2023-05-10T09:05:47;2.42;;;1.05;;
25437;SDS011;13364;49.084;9.978;2023-05-10T09:08:15;2.53;;;1.15;;
25437;SDS011;13364;49.084;9.978;2023-05-10T09:10:44;1.48;;;1.20;;
25437;SDS011;13364;49.084;9.978;2023-05-10T09:13:14;2.78;;;1.27;;
25437;SDS011;13364;49.084;9.978;2023-05-10T09:15:44;1.38;;;1.27;;
25437;SDS011;13364;49.084;9.978;2023-05-10T09:18:12;4.95;;;1.08;;
25437;SDS011;13364;49.084;9.978;2023-05-10T09:20:39;1.48;;;1.20;;
25437;SDS011;13364;49.084;9.978;2023-05-10T09:23:09;2.63;;;1.23;;
25437;SDS011;13364;49.084;9.978;2023-05-10T09:25:36;2.08;;;1.00;;
25437;SDS011;13364;49.084;9.978;2023-05-10T09:28:08;1.52;;;1.17;;
25437;SDS011;13364;49.084;9.978;2023-05-10T09:30:36;1.95;;;1.20;;
25437;SDS011;13364;49.084;9.978;2023-05-10T09:33:03;3.63;;;0.90;;
25437;SDS011;13364;49.084;9.978;2023-05-10T09:35:31;0.90;;;0.90;;
25437;SDS011;13364;49.084;9.978;2023-05-10T09:38:00;0.90;;;0.90;;
25437;SDS011;13364;49.084;9.978;2023-05-10T09:44:22;0.93;;;0.90;;
25437;SDS011;13364;49.084;9.978;2023-05-10T09:47:22;0.82;;;0.82;;
25437;SDS011;13364;49.084;9.978;2023-05-10T09:52:17;0.80;;;0.80;;
25437;SDS011;13364;49.084;9.978;2023-05-10T09:54:52;2.42;;;1.10;;
25437;SDS011;13364;49.084;9.978;2023-05-10T09:57:27;1.20;;;1.10;;
25437;SDS011;13364;49.084;9.978;2023-05-10T09:59:54;1.75;;;0.98;;
25437;SDS011;13364;49.084;9.978;2023-05-10T10:02:38;1.20;;;1.10;;
25437;SDS011;13364;49.084;9.978;2023-05-10T10:05:06;1.50;;;0.90;;
25437;SDS011;13364;49.084;9.978;2023-05-10T10:07:34;4.00;;;1.20;;
25437;SDS011;13364;49.084;9.978;2023-05-10T10:10:02;2.92;;;0.90;;
25437;SDS011;13364;49.084;9.978;2023-05-10T10:12:31;0.90;;;0.90;;
25437;SDS011;13364;49.084;9.978;2023-05-10T10:14:58;1.15;;;1.08;;
25437;SDS011;13364;49.084;9.978;2023-05-10T10:17:29;2.05;;;0.90;;
25437;SDS011;13364;49.084;9.978;2023-05-10T10:19:57;0.98;;;0.98;;
25437;SDS011;13364;49.084;9.978;2023-05-10T10:22:25;1.20;;;1.10;;
25437;SDS011;13364;49.084;9.978;2023-05-10T10:24:52;1.08;;;0.98;;
25437;SDS011;13364;49.084;9.978;2023-05-10T10:27:36;1.23;;;1.13;;
25437;SDS011;13364;49.084;9.978;2023-05-10T10:30:36;3.78;;;1.20;;
25437;SDS011;13364;49.084;9.978;2023-05-10T10:33:18;1.45;;;1.00;;
25437;SDS011;13364;49.084;9.978;2023-05-10T10:36:14;4.35;;;1.45;;
25437;SDS011;13364;49.084;9.978;2023-05-10T10:41:32;1.63;;;1.10;;
25437;SDS011;13364;49.084;9.978;2023-05-10T10:47:06;1.65;;;1.40;;
25437;SDS011;13364;49.084;9.978;2023-05-10T10:49:43;1.60;;;1.40;;
25437;SDS011;13364;49.084;9.978;2023-05-10T10:52:21;1.73;;;1.63;;
25437;SDS011;13364;49.084;9.978;2023-05-10T10:55:08;2.10;;;1.50;;
25437;SDS011;13364;49.084;9.978;2023-05-10T11:00:24;2.42;;;1.90;;
25437;SDS011;13364;49.084;9.978;2023-05-10T11:05:24;2.47;;;2.28;;
25437;SDS011;13364;49.084;9.978;2023-05-10T11:08:13;4.68;;;2.15;;
25437;SDS011;13364;49.084;9.978;2023-05-10T11:13:42;2.92;;;2.22;;
25437;SDS011;13364;49.084;9.978;2023-05-10T11:18:54;2.63;;;1.75;;
25437;SDS011;13364;49.084;9.978;2023-05-10T11:21:29;2.50;;;1.80;;
25437;SDS011;13364;49.084;9.978;2023-05-10T11:27:02;1.88;;;1.77;;
25437;SDS011;13364;49.084;9.978;2023-05-10T11:29:29;3.08;;;2.08;;
25437;SDS011;13364;49.084;9.978;2023-05-10T11:31:57;3.15;;;1.95;;
25437;SDS011;13364;49.084;9.978;2023-05-10T11:34:26;5.07;;;1.98;;
25437;SDS011;13364;49.084;9.978;2023-05-10T11:36:57;1.98;;;1.80;;
25437;SDS011;13364;49.084;9.978;2023-05-10T11:39:26;1.20;;;1.10;;
25437;SDS011;13364;49.084;9.978;2023-05-10T11:41:55;2.92;;;1.85;;
25437;SDS011;13364;49.084;9.978;2023-05-10T11:44:23;3.85;;;1.60;;
25437;SDS011;13364;49.084;9.978;2023-05-10T11:47:00;1.85;;;1.75;;
25437;SDS011;13364;49.084;9.978;2023-05-10T11:49:32;2.88;;;1.80;;
25437;SDS011;13364;49.084;9.978;2023-05-10T11:52:03;3.25;;;1.80;;
25437;SDS011;13364;49.084;9.978;2023-05-10T11:54:32;2.55;;;1.83;;
25437;SDS011;13364;49.084;9.978;2023-05-10T11:57:01;2.25;;;2.05;;
25437;SDS011;13364;49.084;9.978;2023-05-10T12:02:22;2.35;;;2.15;;
25437;SDS011;13364;49.084;9.978;2023-05-10T12:04:50;2.33;;;1.83;;
25437;SDS011;13364;49.084;9.978;2023-05-10T12:07:17;1.70;;;1.60;;
25437;SDS011;13364;49.084;9.978;2023-05-10T12:10:05;3.20;;;1.38;;
25437;SDS011;13364;49.084;9.978;2023-05-10T12:12:37;2.17;;;1.20;;
25437;SDS011;13364;49.084;9.978;2023-05-10T12:15:12;1.13;;;0.95;;
25437;SDS011;13364;49.084;9.978;2023-05-10T12:17:50;1.00;;;0.80;;
25437;SDS011;13364;49.084;9.978;2023-05-10T12:20:18;0.70;;;0.70;;
25437;SDS011;13364;49.084;9.978;2023-05-10T12:22:52;1.63;;;0.90;;
25437;SDS011;13364;49.084;9.978;2023-05-10T12:25:21;2.25;;;1.20;;
25437;SDS011;13364;49.084;9.978;2023-05-10T12:27:51;1.67;;;0.90;;
25437;SDS011;13364;49.084;9.978;2023-05-10T12:30:22;2.10;;;0.90;;
25437;SDS011;13364;49.084;9.978;2023-05-10T12:32:50;5.18;;;1.08;;
25437;SDS011;13364;49.084;9.978;2023-05-10T12:35:18;2.38;;;0.90;;
25437;SDS011;13364;49.084;9.978;2023-05-10T12:37:50;4.13;;;1.13;;
25437;SDS011;13364;49.084;9.978;2023-05-10T12:40:17;1.20;;;1.13;;
25437;SDS011;13364;49.084;9.978;2023-05-10T12:42:45;1.38;;;0.90;;
25437;SDS011;13364;49.084;9.978;2023-05-10T12:45:12;1.90;;;0.80;;
25437;SDS011;13364;49.084;9.978;2023-05-10T12:47:39;1.08;;;0.90;;
25437;SDS011;13364;49.084;9.978;2023-05-10T12:50:09;4.70;;;0.90;;
25437;SDS011;13364;49.084;9.978;2023-05-10T12:52:36;2.15;;;1.00;;
25437;SDS011;13364;49.084;9.978;2023-05-10T12:55:04;1.70;;;1.00;;
25437;SDS011;13364;49.084;9.978;2023-05-10T12:57:31;2.80;;;0.98;;
25437;SDS011;13364;49.084;9.978;2023-05-10T12:59:58;1.35;;;1.00;;
25437;SDS011;13364;49.084;9.978;2023-05-10T13:02:25;1.33;;;1.00;;
25437;SDS011;13364;49.084;9.978;2023-05-10T13:04:52;1.00;;;0.90;;
25437;SDS011;13364;49.084;9.978;2023-05-10T13:07:19;2.30;;;0.95;;
25437;SDS011;13364;49.084;9.978;2023-05-10T13:09:46;1.10;;;0.88;;
25437;SDS011;13364;49.084;9.978;2023-05-10T13:12:13;2.90;;;0.80;;
25437;SDS011;13364;49.084;9.978;2023-05-10T13:14:40;2.17;;;1.00;;
25437;SDS011;13364;49.084;9.978;2023-05-10T13:17:08;0.70;;;0.70;;
25437;SDS011;13364;49.084;9.978;2023-05-10T13:19:35;2.20;;;0.93;;
25437;SDS011;13364;49.084;9.978;2023-05-10T13:22:02;2.40;;;0.85;;
25437;SDS011;13364;49.084;9.978;2023-05-10T13:24:29;1.33;;;0.70;;
25437;SDS011;13364;49.084;9.978;2023-05-10T13:26:56;1.08;;;0.98;;
25437;SDS011;13364;49.084;9.978;2023-05-10T13:29:24;0.85;;;0.80;;
25437;SDS011;13364;49.084;9.978;2023-05-10T13:31:51;0.73;;;0.70;;
25437;SDS011;13364;49.084;9.978;2023-05-10T13:34:18;1.25;;;0.75;;
25437;SDS011;13364;49.084;9.978;2023-05-10T13:36:47;1.55;;;0.90;;
25437;SDS011;13364;49.084;9.978;2023-05-10T13:39:15;3.47;;;1.42;;
25437;SDS011;13364;49.084;9.978;2023-05-10T13:41:43;2.35;;;1.60;;
25437;SDS011;13364;49.084;9.978;2023-05-10T13:44:11;2.90;;;1.00;;
25437;SDS011;13364;49.084;9.978;2023-05-10T13:49:08;2.25;;;1.02;;
25437;SDS011;13364;49.084;9.978;2023-05-10T13:51:35;1.85;;;1.00;;
25437;SDS011;13364;49.084;9.978;2023-05-10T13:54:02;1.23;;;1.13;;
25437;SDS011;13364;49.084;9.978;2023-05-10T13:56:30;2.40;;;1.02;;
25437;SDS011;13364;49.084;9.978;2023-05-10T13:58:57;3.45;;;1.15;;
25437;SDS011;13364;49.084;9.978;2023-05-10T14:01:24;0.90;;;0.73;;
25437;SDS011;13364;49.084;9.978;2023-05-10T14:03:51;1.67;;;1.20;;
25437;SDS011;13364;49.084;9.978;2023-05-10T14:06:18;2.58;;;1.20;;
25437;SDS011;13364;49.084;9.978;2023-05-10T14:08:46;3.33;;;1.30;;
25437;SDS011;13364;49.084;9.978;2023-05-10T14:11:13;1.52;;;1.27;;
25437;SDS011;13364;49.084;9.978;2023-05-10T14:13:40;3.20;;;1.30;;
25437;SDS011;13364;49.084;9.978;2023-05-10T14:16:07;2.35;;;1.50;;
25437;SDS011;13364;49.084;9.978;2023-05-10T14:18:34;1.30;;;1.10;;
25437;SDS011;13364;49.084;9.978;2023-05-10T14:21:01;2.35;;;1.27;;
25437;SDS011;13364;49.084;9.978;2023-05-10T14:23:29;3.13;;;1.17;;
25437;SDS011;13364;49.084;9.978;2023-05-10T14:25:56;3.53;;;1.30;;
25437;SDS011;13364;49.084;9.978;2023-05-10T14:28:23;2.20;;;1.23;;
25437;SDS011;13364;49.084;9.978;2023-05-10T14:30:51;1.60;;;1.20;;
25437;SDS011;13364;49.084;9.978;2023-05-10T14:33:18;4.82;;;1.55;;
25437;SDS011;13364;49.084;9.978;2023-05-10T14:35:45;3.97;;;1.55;;
25437;SDS011;13364;49.084;9.978;2023-05-10T14:38:13;2.28;;;1.33;;
25437;SDS011;13364;49.084;9.978;2023-05-10T14:40:40;1.63;;;1.30;;
25437;SDS011;13364;49.084;9.978;2023-05-10T14:43:09;2.28;;;1.25;;
25437;SDS011;13364;49.084;9.978;2023-05-10T14:45:36;2.50;;;1.20;;
25437;SDS011;13364;49.084;9.978;2023-05-10T14:48:03;2.53;;;1.38;;
25437;SDS011;13364;49.084;9.978;2023-05-10T14:50:31;4.30;;;1.40;;
25437;SDS011;13364;49.084;9.978;2023-05-10T14:53:02;2.75;;;1.40;;
25437;SDS011;13364;49.084;9.978;2023-05-10T14:58:54;1.92;;;1.52;;
25437;SDS011;13364;49.084;9.978;2023-05-10T15:01:22;3.58;;;1.55;;
25437;SDS011;13364;49.084;9.978;2023-05-10T15:03:50;3.20;;;1.83;;
25437;SDS011;13364;49.084;9.978;2023-05-10T15:06:20;3.78;;;2.00;;
25437;SDS011;13364;49.084;9.978;2023-05-10T15:08:51;3.20;;;2.00;;
25437;SDS011;13364;49.084;9.978;2023-05-10T15:11:18;4.78;;;2.28;;
25437;SDS011;13364;49.084;9.978;2023-05-10T15:16:45;5.65;;;2.05;;
25437;SDS011;13364;49.084;9.978;2023-05-10T15:19:12;3.33;;;2.00;;
25437;SDS011;13364;49.084;9.978;2023-05-10T15:21:39;5.95;;;2.50;;
25437;SDS011;13364;49.084;9.978;2023-05-10T15:24:08;5.25;;;2.67;;
25437;SDS011;13364;49.084;9.978;2023-05-10T15:26:36;4.43;;;2.72;;
25437;SDS011;13364;49.084;9.978;2023-05-10T15:29:02;3.92;;;2.33;;
25437;SDS011;13364;49.084;9.978;2023-05-10T15:31:30;6.63;;;2.53;;
25437;SDS011;13364;49.084;9.978;2023-05-10T15:33:57;3.50;;;1.98;;
25437;SDS011;13364;49.084;9.978;2023-05-10T15:36:27;3.50;;;2.13;;
25437;SDS011;13364;49.084;9.978;2023-05-10T15:38:54;3.72;;;1.90;;
25437;SDS011;13364;49.084;9.978;2023-05-10T15:41:22;5.40;;;1.95;;
25437;SDS011;13364;49.084;9.978;2023-05-10T15:43:50;3.05;;;2.38;;
25437;SDS011;13364;49.084;9.978;2023-05-10T15:46:17;5.07;;;2.22;;
25437;SDS011;13364;49.084;9.978;2023-05-10T15:48:44;2.80;;;2.10;;
25437;SDS011;13364;49.084;9.978;2023-05-10T15:51:11;3.47;;;2.35;;
25437;SDS011;13364;49.084;9.978;2023-05-10T15:53:38;4.88;;;2.20;;
25437;SDS011;13364;49.084;9.978;2023-05-10T15:56:18;5.55;;;2.20;;
25437;SDS011;13364;49.084;9.978;2023-05-10T15:58:45;3.90;;;1.60;;